Aeroporto :
LOGIN :

Iscrizione | Disclaimer

   EN    FR    IT 

 










Sommario :    VFR   VFR Marginale   IFR   IFR Intensivo   IFR Molto Intensivo
Visibilità : 
Base nubi : 
>= 8 km
>= 3000ft
5 / 8 km
1000 / 3000 ft
1500m / 5 km
500 / 1000 ft
800 / 1500m
200 / 500 ft
< 800m
< 200 ft
Simboli :   Temporali  Nebbia  Neve Forte  Precipitazioni Forti  Vento > 20 kt
SIGMETs :   Varie  Temporali  Ghiacco  Turbolenza  Onda orograficha  Ceneri Vulcaniche







- Altitudine del aeroporto : 49 ft
- Codice IATA : GLZ


EHGR - Gilze-Rijen Airbase

ULTIMO METAR :
  • 172038Z AUTO 32003KT 290V360 9999 NCD 11/06 Q1025 BLU 31003KT CAVOK

METARs OBSOLETI :
  • 172025Z AUTO 33004KT 300V020 9999 NCD 11/06 Q1025 BLU 31005KT 9999 NSC RMK TS INFO NOT AVBL
  • 171955Z AUTO 33004KT 280V030 9999 SCT049 11/06 Q1025 BLU 31005KT 9999 NSC
  • 171925Z AUTO 33005KT 290V020 9999 NCD 12/06 Q1025 BLU 31005KT 9999 NSC
  • 171857Z AUTO 33005KT 290V010 9999 BKN048 13/06 Q1024 BLU 31005KT 9999 NSC
  • 171825Z AUTO 33006KT 270V050 9999 BKN044 OVC049 13/05 Q1024 BLU 31005KT CAVOK TEMPO BKN045

TAF TAF EHGR
Valido dal 17 a 17 ore il 18 a 05 ore UTC


171637Z 1717/1805 31012KT 9999 SCT035
BECMG 1717/1719 30005KT
Nessun NOTAM noto per questo aeroporto.



MetMap, La meteo Aeronautica in un colpo d'occhio ! - Copyright ORBIFLY Dicembre 2007 - Disclaimer

ORBIFLY MET'MAP TEAM :

Programmazione e sviluppo : Alexandra Zaïnal
Concezione e sviluppo : Baudouin d'Aumeries
Co-Programmazione e sviluppo : Marc-Olivier Méhu
Supporto tecnico e logistico : Manuel Goepfert
Aiuto per la traduzione : Arnaldo La Scala

Contatto : metmap@orbifly.com




FONTI E CREDITI :

   NOAA